This is the latest recevied weather packets stored in our database for station/object S54MI-13. If no packets are shown the sender has not sent any weather packets the latest 10 day(s).
| Time | Temp. | Humidity | Pressure | Rain* | Wind** | Luminosity | Snow |
|---|---|---|---|---|---|---|---|
| 1777282338 | 22.78° C | 39% | - | - | - | 780 W/m² | - |
| 1777280190 | 21.67° C | 41% | - | - | - | 717 W/m² | - |
| 1777277296 | 21.11° C | 46% | - | - | - | 562 W/m² | - |
| 1777275141 | 17.78° C | 48% | - | - | - | 486 W/m² | - |
| 1777274430 | 16.67° C | 48% | - | - | - | 486 W/m² | - |
| 1777270100 | 13.89° C | 47% | - | - | - | 192 W/m² | - |
| 1777264347 | 12.78° C | 43% | - | - | - | 1 W/m² | - |
| 1777261476 | 12.78° C | 44% | - | - | - | 0 W/m² | - |
| 1777259307 | 12.78° C | 45% | - | - | - | 0 W/m² | - |
| 1777252817 | 14.44° C | 46% | - | - | - | 0 W/m² | - |
| 1777251383 | 15° C | 46% | - | - | - | 0 W/m² | - |
| 1777248499 | 15.56° C | 49% | - | - | - | 0 W/m² | - |
| 1777244218 | 17.22° C | 46% | - | - | - | 0 W/m² | - |
| 1777243478 | 17.78° C | 46% | - | - | - | 0 W/m² | - |
| 1777241309 | 18.33° C | 45% | - | - | - | 0 W/m² | - |
| 1777236976 | 17.22° C | 47% | - | - | - | 0 W/m² | - |
| 1777235548 | 16.67° C | 49% | - | - | - | 0 W/m² | - |
| 1777231229 | 16.67° C | 47% | - | - | - | 0 W/m² | - |
| 1777226897 | 17.78° C | 46% | - | - | - | 23 W/m² | - |
| 1777221857 | 21.67° C | 47% | - | - | - | 325 W/m² | - |
| 1777217548 | 22.22° C | 46% | - | - | - | 511 W/m² | - |
| 1777216828 | 22.22° C | 45% | - | - | - | 511 W/m² | - |
| 1777214658 | 23.89° C | 42% | - | - | - | 673 W/m² | - |
| 1777208907 | 23.89° C | 45% | - | - | - | 843 W/m² | - |
| 1777206747 | 23.89° C | 43% | - | - | - | 877 W/m² | - |
* Rain since midnight (hover to see other rain measurements)
** Current wind speed in m/s (hover to see current wind gust speed)